Onweer radar Meer informatie blitzortung!


Regen radar Meer informatie rain snow radar



METAR rapporten vliegvelden

   
EHRD - Rotterdam The Hague Airport - Rotterdam, Netherlands
Afstand tot: NW 20 km
Gewijzigd: 21-10-2019 09:55
Motregen, Bewolking  
Motregen, Bewolking  
   Wind: ONO 14.8 km/h
Wind: ONO 14.8 km/h
Temperatuur: 11°C
Dauwpunt: 11°C
Vochtigheid: 100%
Barometer: 1013 hPa
Bewolking: Bewolking
Zicht: 6 km
Bewolking: Licht bewolkt 500 ft,
Grotendeels bewolkt 600 ft,
Bewolking 700 ft
EHRD 210755Z AUTO 06008KT 6000 DZ FEW005 BKN006 OVC007 11/11 Q1013 TEMPO 4000 DZ
EHAM - Amsterdam Airport Schiphol - Haarlemmermeer, Netherlands
Afstand tot: NNO 55 km
Gewijzigd: 21-10-2019 09:55
Grotendeels bewolkt  
Grotendeels bewolkt  
   Wind: ONO 20.4 km/h
Wind: ONO 20.4 km/h
Temperatuur: 12°C
Dauwpunt: 11°C
Vochtigheid: 94%
Barometer: 1013 hPa
Bewolking: Grotendeels bewolkt
Zicht: meer dan 10 km
Bewolking: Gedeeltelijk bewolkt 600 ft,
Grotendeels bewolkt 700 ft,
Grotendeels bewolkt 800 ft
EHAM 210755Z 06011KT 020V100 9999 SCT006 BKN007 BKN008 12/11 Q1013 TEMPO 6000 -RADZ
EHKD - Vliegveld de Kooy - Den Helder, Netherlands
Afstand tot: N 123 km
Gewijzigd: 21-10-2019 09:55
Grotendeels bewolkt  
Grotendeels bewolkt  
   Wind: ONO 35.2 km/h
Wind: ONO 35.2 km/h
Temperatuur: 12°C
Dauwpunt: 11°C
Vochtigheid: 94%
Barometer: 1014 hPa
Bewolking: Grotendeels bewolkt
Zicht: meer dan 10 km
Bewolking: Licht bewolkt 800 ft,
Grotendeels bewolkt 1000 ft,
Grotendeels bewolkt 1300 ft,
Licht bewolkt 1500 ft
EHKD 210755Z AUTO 06019KT 030V090 9999 FEW008 BKN010 BKN013 FEW015CB 12/11 Q1014 GRN 04010KT 9999 SCT008 BKN020 TEMPO 4000 RADZ SCT005 BKN015
EBAW - Vliegbasis Leeuwarden - Leeuwarden, Netherlands
Afstand tot: NNO 173 km
Gewijzigd: 21-10-2019 10:20
Grotendeels bewolkt  
Grotendeels bewolkt  
   Wind: Zuiden 9.3 km/h
Wind: Zuiden 9.3 km/h
Temperatuur: 13°C
Dauwpunt: 12°C
Vochtigheid: 94%
Barometer: 1013 hPa
Bewolking: Grotendeels bewolkt
Zicht: 6 km
Bewolking: Licht bewolkt 500 ft,
Grotendeels bewolkt 4000 ft
EBAW 210820Z 18005KT 140V220 6000 FEW005 BKN040 13/12 Q1013 NOSIG
EHEH - Vliegbasis Eindhoven - Eindhoven, Netherlands
Afstand tot: ZO 65 km
Gewijzigd: 21-10-2019 10:21
Nevel, Grotendeels bewolkt  
Nevel, Grotendeels bewolkt  
   Wind: ZZO 13 km/h
Wind: ZZO 13 km/h
Temperatuur: 14°C
Dauwpunt: 13°C
Vochtigheid: 94%
Barometer: 1013 hPa
Bewolking: Grotendeels bewolkt
Zicht: 6 km
Bewolking: Licht bewolkt 2800 ft,
Grotendeels bewolkt 3900 ft
EHEH 210821Z AUTO 16007KT 110V210 6000 BR FEW028 BKN039 14/13 Q1013 WHT 18008KT 9999 NSW FEW004 BKN035
EHBK - Maastricht Aachen Airport - Meerssen, Netherlands
Afstand tot: ZO 128 km
Gewijzigd: 21-10-2019 09:55
Bewolking  
Bewolking  
   Wind: Zuiden 13 km/h
Wind: Zuiden 13 km/h
Temperatuur: 15°C
Dauwpunt: 12°C
Vochtigheid: 82%
Barometer: 1014 hPa
Bewolking: Bewolking
Zicht: meer dan 10 km
Bewolking: Gedeeltelijk bewolkt 2300 ft,
Grotendeels bewolkt 2700 ft,
Bewolking 3100 ft
EHBK 210755Z AUTO 19007KT 9999 SCT023 BKN027 OVC031 15/12 Q1014 NOSIG

Script ontwikkeld door  Saratoga-weather.org Aangepast voor de template door  Weerstation Leuven

U vindt ons ook hier:

UK Metoffice

Weather Underground

AWEKAS